sensor_id;sensor_type;location;lat;lon;timestamp;temperature;humidity
5792;DHT22;2922;53.482;10.006;2023-08-30T00:00:14;15.00;99.90
5792;DHT22;2922;53.482;10.006;2023-08-30T00:02:43;14.90;99.90
5792;DHT22;2922;53.482;10.006;2023-08-30T00:05:09;14.90;99.90
5792;DHT22;2922;53.482;10.006;2023-08-30T00:07:35;14.90;99.90
5792;DHT22;2922;53.482;10.006;2023-08-30T00:10:00;14.90;99.90
5792;DHT22;2922;53.482;10.006;2023-08-30T00:12:27;14.80;99.90
5792;DHT22;2922;53.482;10.006;2023-08-30T00:14:53;14.80;99.90
5792;DHT22;2922;53.482;10.006;2023-08-30T00:17:18;14.70;99.90
5792;DHT22;2922;53.482;10.006;2023-08-30T00:19:45;14.70;99.90
5792;DHT22;2922;53.482;10.006;2023-08-30T00:22:11;14.70;99.90
5792;DHT22;2922;53.482;10.006;2023-08-30T00:24:38;14.70;99.90
5792;DHT22;2922;53.482;10.006;2023-08-30T00:27:04;14.60;99.90
5792;DHT22;2922;53.482;10.006;2023-08-30T00:29:30;14.60;99.90
5792;DHT22;2922;53.482;10.006;2023-08-30T00:31:55;14.60;99.90
5792;DHT22;2922;53.482;10.006;2023-08-30T00:34:21;14.70;99.90
5792;DHT22;2922;53.482;10.006;2023-08-30T00:36:47;14.60;99.90
5792;DHT22;2922;53.482;10.006;2023-08-30T00:39:13;14.50;99.90
5792;DHT22;2922;53.482;10.006;2023-08-30T00:41:39;14.50;99.90
5792;DHT22;2922;53.482;10.006;2023-08-30T00:44:04;14.50;99.90
5792;DHT22;2922;53.482;10.006;2023-08-30T00:46:31;14.50;99.90
5792;DHT22;2922;53.482;10.006;2023-08-30T00:48:58;14.40;99.90
5792;DHT22;2922;53.482;10.006;2023-08-30T00:51:24;14.50;99.90
5792;DHT22;2922;53.482;10.006;2023-08-30T00:53:50;14.40;99.90
5792;DHT22;2922;53.482;10.006;2023-08-30T00:56:15;14.30;99.90
5792;DHT22;2922;53.482;10.006;2023-08-30T00:58:42;14.40;99.90
5792;DHT22;2922;53.482;10.006;2023-08-30T01:01:07;14.30;99.90
5792;DHT22;2922;53.482;10.006;2023-08-30T01:03:34;14.30;99.90
5792;DHT22;2922;53.482;10.006;2023-08-30T01:08:28;14.30;99.90
5792;DHT22;2922;53.482;10.006;2023-08-30T01:11:19;14.30;99.90
5792;DHT22;2922;53.482;10.006;2023-08-30T01:14:12;14.30;99.90
5792;DHT22;2922;53.482;10.006;2023-08-30T01:16:38;14.20;99.90
5792;DHT22;2922;53.482;10.006;2023-08-30T01:19:28;14.20;99.90
5792;DHT22;2922;53.482;10.006;2023-08-30T01:27:11;14.10;99.90
5792;DHT22;2922;53.482;10.006;2023-08-30T01:29:40;14.10;99.90
5792;DHT22;2922;53.482;10.006;2023-08-30T01:32:08;14.10;99.90
5792;DHT22;2922;53.482;10.006;2023-08-30T01:34:36;14.10;99.90
5792;DHT22;2922;53.482;10.006;2023-08-30T01:37:04;14.10;99.90
5792;DHT22;2922;53.482;10.006;2023-08-30T01:39:31;14.00;99.90
5792;DHT22;2922;53.482;10.006;2023-08-30T01:41:57;14.00;99.90
5792;DHT22;2922;53.482;10.006;2023-08-30T01:44:28;14.00;99.90
5792;DHT22;2922;53.482;10.006;2023-08-30T01:46:54;13.90;99.90
5792;DHT22;2922;53.482;10.006;2023-08-30T01:49:21;13.90;99.90
5792;DHT22;2922;53.482;10.006;2023-08-30T01:51:48;13.90;99.90
5792;DHT22;2922;53.482;10.006;2023-08-30T01:54:17;13.90;99.90
5792;DHT22;2922;53.482;10.006;2023-08-30T01:56:44;13.90;99.90
5792;DHT22;2922;53.482;10.006;2023-08-30T01:59:10;13.80;99.90
5792;DHT22;2922;53.482;10.006;2023-08-30T02:01:36;13.80;99.90
5792;DHT22;2922;53.482;10.006;2023-08-30T02:04:01;13.80;99.90
5792;DHT22;2922;53.482;10.006;2023-08-30T02:06:35;13.80;99.90
5792;DHT22;2922;53.482;10.006;2023-08-30T02:09:39;13.80;99.90
5792;DHT22;2922;53.482;10.006;2023-08-30T02:12:12;13.70;99.90
5792;DHT22;2922;53.482;10.006;2023-08-30T02:14:39;13.70;99.90
5792;DHT22;2922;53.482;10.006;2023-08-30T02:17:06;13.70;99.90
5792;DHT22;2922;53.482;10.006;2023-08-30T02:19:32;13.70;99.90
5792;DHT22;2922;53.482;10.006;2023-08-30T02:21:59;13.70;99.90
5792;DHT22;2922;53.482;10.006;2023-08-30T02:24:25;13.70;99.90
5792;DHT22;2922;53.482;10.006;2023-08-30T02:26:50;13.70;99.90
5792;DHT22;2922;53.482;10.006;2023-08-30T02:29:16;13.70;99.90
5792;DHT22;2922;53.482;10.006;2023-08-30T02:31:41;13.70;99.90
5792;DHT22;2922;53.482;10.006;2023-08-30T02:34:07;13.70;99.90
5792;DHT22;2922;53.482;10.006;2023-08-30T02:36:32;13.60;99.90
5792;DHT22;2922;53.482;10.006;2023-08-30T02:38:58;13.60;99.90
5792;DHT22;2922;53.482;10.006;2023-08-30T02:41:24;13.60;99.90
5792;DHT22;2922;53.482;10.006;2023-08-30T02:43:49;13.60;99.90
5792;DHT22;2922;53.482;10.006;2023-08-30T02:46:15;13.60;99.90
5792;DHT22;2922;53.482;10.006;2023-08-30T02:48:40;13.60;99.90
5792;DHT22;2922;53.482;10.006;2023-08-30T02:51:06;13.60;99.90
5792;DHT22;2922;53.482;10.006;2023-08-30T02:53:31;13.60;99.90
5792;DHT22;2922;53.482;10.006;2023-08-30T02:55:57;13.60;99.90
5792;DHT22;2922;53.482;10.006;2023-08-30T02:58:22;13.60;99.90
5792;DHT22;2922;53.482;10.006;2023-08-30T03:00:48;13.60;99.90
5792;DHT22;2922;53.482;10.006;2023-08-30T03:03:14;13.60;99.90
5792;DHT22;2922;53.482;10.006;2023-08-30T03:05:40;13.70;99.90
5792;DHT22;2922;53.482;10.006;2023-08-30T03:08:05;13.70;99.90
5792;DHT22;2922;53.482;10.006;2023-08-30T03:10:31;13.60;99.90
5792;DHT22;2922;53.482;10.006;2023-08-30T03:12:57;13.70;99.90
5792;DHT22;2922;53.482;10.006;2023-08-30T03:15:23;13.70;99.90
5792;DHT22;2922;53.482;10.006;2023-08-30T03:17:48;13.60;99.90
5792;DHT22;2922;53.482;10.006;2023-08-30T03:20:14;13.60;99.90
5792;DHT22;2922;53.482;10.006;2023-08-30T03:22:40;13.70;99.90
5792;DHT22;2922;53.482;10.006;2023-08-30T03:25:05;13.70;99.90
5792;DHT22;2922;53.482;10.006;2023-08-30T03:27:33;13.70;99.90
5792;DHT22;2922;53.482;10.006;2023-08-30T03:29:58;13.70;99.90
5792;DHT22;2922;53.482;10.006;2023-08-30T03:32:24;13.70;99.90
5792;DHT22;2922;53.482;10.006;2023-08-30T03:34:49;13.70;99.90
5792;DHT22;2922;53.482;10.006;2023-08-30T03:37:16;13.70;99.90
5792;DHT22;2922;53.482;10.006;2023-08-30T03:39:42;13.60;99.90
5792;DHT22;2922;53.482;10.006;2023-08-30T03:42:07;13.70;99.90
5792;DHT22;2922;53.482;10.006;2023-08-30T03:44:33;13.60;99.90
5792;DHT22;2922;53.482;10.006;2023-08-30T03:46:59;13.70;99.90
5792;DHT22;2922;53.482;10.006;2023-08-30T03:49:24;13.60;99.90
5792;DHT22;2922;53.482;10.006;2023-08-30T03:51:50;13.70;99.90
5792;DHT22;2922;53.482;10.006;2023-08-30T03:54:16;13.60;99.90
5792;DHT22;2922;53.482;10.006;2023-08-30T03:56:43;13.60;99.90
5792;DHT22;2922;53.482;10.006;2023-08-30T03:59:09;13.60;99.90
5792;DHT22;2922;53.482;10.006;2023-08-30T04:01:34;13.70;99.90
5792;DHT22;2922;53.482;10.006;2023-08-30T04:04:00;13.60;99.90
5792;DHT22;2922;53.482;10.006;2023-08-30T04:06:25;13.70;99.90
5792;DHT22;2922;53.482;10.006;2023-08-30T04:08:51;13.70;99.90
5792;DHT22;2922;53.482;10.006;2023-08-30T04:11:16;13.60;99.90
5792;DHT22;2922;53.482;10.006;2023-08-30T04:13:42;13.60;99.90
5792;DHT22;2922;53.482;10.006;2023-08-30T04:16:08;13.60;99.90
5792;DHT22;2922;53.482;10.006;2023-08-30T04:18:33;13.60;99.90
5792;DHT22;2922;53.482;10.006;2023-08-30T04:20:59;13.60;99.90
5792;DHT22;2922;53.482;10.006;2023-08-30T04:23:27;13.60;99.90
5792;DHT22;2922;53.482;10.006;2023-08-30T04:25:53;13.60;99.90
5792;DHT22;2922;53.482;10.006;2023-08-30T04:28:18;13.60;99.90
5792;DHT22;2922;53.482;10.006;2023-08-30T04:30:44;13.60;99.90
5792;DHT22;2922;53.482;10.006;2023-08-30T04:33:10;13.60;99.90
5792;DHT22;2922;53.482;10.006;2023-08-30T04:35:36;13.60;99.90
5792;DHT22;2922;53.482;10.006;2023-08-30T04:38:01;13.60;99.90
5792;DHT22;2922;53.482;10.006;2023-08-30T04:40:28;13.60;99.90
5792;DHT22;2922;53.482;10.006;2023-08-30T04:42:55;13.60;99.90
5792;DHT22;2922;53.482;10.006;2023-08-30T04:45:21;13.60;99.90
5792;DHT22;2922;53.482;10.006;2023-08-30T04:47:47;13.70;99.90
5792;DHT22;2922;53.482;10.006;2023-08-30T04:50:13;13.70;99.90
5792;DHT22;2922;53.482;10.006;2023-08-30T04:52:38;13.70;99.90
5792;DHT22;2922;53.482;10.006;2023-08-30T04:55:04;13.70;99.90
5792;DHT22;2922;53.482;10.006;2023-08-30T04:57:30;13.70;99.90
5792;DHT22;2922;53.482;10.006;2023-08-30T04:59:56;13.80;99.90
5792;DHT22;2922;53.482;10.006;2023-08-30T05:02:22;13.80;99.90
5792;DHT22;2922;53.482;10.006;2023-08-30T05:04:47;13.80;99.90
5792;DHT22;2922;53.482;10.006;2023-08-30T05:07:13;13.80;99.90
5792;DHT22;2922;53.482;10.006;2023-08-30T05:09:39;13.90;99.90
5792;DHT22;2922;53.482;10.006;2023-08-30T05:12:06;13.90;99.90
5792;DHT22;2922;53.482;10.006;2023-08-30T05:14:32;13.90;99.90
5792;DHT22;2922;53.482;10.006;2023-08-30T05:16:57;13.90;99.90
5792;DHT22;2922;53.482;10.006;2023-08-30T05:19:23;14.00;99.90
5792;DHT22;2922;53.482;10.006;2023-08-30T05:21:48;14.00;99.90
5792;DHT22;2922;53.482;10.006;2023-08-30T05:24:20;14.00;99.90
5792;DHT22;2922;53.482;10.006;2023-08-30T05:26:46;14.00;99.90
5792;DHT22;2922;53.482;10.006;2023-08-30T05:29:13;14.10;99.90
5792;DHT22;2922;53.482;10.006;2023-08-30T05:31:39;14.10;99.90
5792;DHT22;2922;53.482;10.006;2023-08-30T05:34:04;14.10;99.90
5792;DHT22;2922;53.482;10.006;2023-08-30T05:36:30;14.20;99.90
5792;DHT22;2922;53.482;10.006;2023-08-30T05:38:55;14.30;99.90
5792;DHT22;2922;53.482;10.006;2023-08-30T05:41:21;14.30;99.90
5792;DHT22;2922;53.482;10.006;2023-08-30T05:43:46;14.30;99.90
5792;DHT22;2922;53.482;10.006;2023-08-30T05:46:12;14.30;99.90
5792;DHT22;2922;53.482;10.006;2023-08-30T05:48:40;14.40;99.90
5792;DHT22;2922;53.482;10.006;2023-08-30T05:51:06;14.40;99.90
5792;DHT22;2922;53.482;10.006;2023-08-30T05:53:31;14.40;99.90
5792;DHT22;2922;53.482;10.006;2023-08-30T05:55:57;14.50;99.90
5792;DHT22;2922;53.482;10.006;2023-08-30T05:58:23;14.50;99.90
5792;DHT22;2922;53.482;10.006;2023-08-30T06:00:48;14.50;99.90
5792;DHT22;2922;53.482;10.006;2023-08-30T06:03:14;14.60;99.90
5792;DHT22;2922;53.482;10.006;2023-08-30T06:05:39;14.70;99.90
5792;DHT22;2922;53.482;10.006;2023-08-30T06:08:05;14.70;99.90
5792;DHT22;2922;53.482;10.006;2023-08-30T06:10:31;14.80;99.90
5792;DHT22;2922;53.482;10.006;2023-08-30T06:12:56;14.90;99.90
5792;DHT22;2922;53.482;10.006;2023-08-30T06:15:22;14.90;99.90
5792;DHT22;2922;53.482;10.006;2023-08-30T06:17:48;15.00;99.90
5792;DHT22;2922;53.482;10.006;2023-08-30T06:20:14;15.10;99.90
5792;DHT22;2922;53.482;10.006;2023-08-30T06:22:39;15.20;99.90
5792;DHT22;2922;53.482;10.006;2023-08-30T06:25:08;15.20;99.90
5792;DHT22;2922;53.482;10.006;2023-08-30T06:27:36;15.30;99.90
5792;DHT22;2922;53.482;10.006;2023-08-30T06:30:02;15.40;99.90
5792;DHT22;2922;53.482;10.006;2023-08-30T06:32:28;15.50;99.90
5792;DHT22;2922;53.482;10.006;2023-08-30T06:34:54;15.60;99.90
5792;DHT22;2922;53.482;10.006;2023-08-30T06:37:20;15.70;99.90
5792;DHT22;2922;53.482;10.006;2023-08-30T06:39:45;15.80;99.90
5792;DHT22;2922;53.482;10.006;2023-08-30T06:42:11;15.90;99.90
5792;DHT22;2922;53.482;10.006;2023-08-30T06:44:36;16.00;99.90
5792;DHT22;2922;53.482;10.006;2023-08-30T06:47:02;16.10;99.90
5792;DHT22;2922;53.482;10.006;2023-08-30T06:49:28;16.20;99.90
5792;DHT22;2922;53.482;10.006;2023-08-30T06:51:56;16.20;99.90
5792;DHT22;2922;53.482;10.006;2023-08-30T06:54:22;16.30;99.90
5792;DHT22;2922;53.482;10.006;2023-08-30T06:56:58;16.40;99.90
5792;DHT22;2922;53.482;10.006;2023-08-30T06:59:23;16.50;99.90
5792;DHT22;2922;53.482;10.006;2023-08-30T07:01:49;16.60;99.90
5792;DHT22;2922;53.482;10.006;2023-08-30T07:04:15;16.60;99.90
5792;DHT22;2922;53.482;10.006;2023-08-30T07:06:40;16.70;99.90
5792;DHT22;2922;53.482;10.006;2023-08-30T07:09:06;16.80;99.90
5792;DHT22;2922;53.482;10.006;2023-08-30T07:11:31;16.80;99.90
5792;DHT22;2922;53.482;10.006;2023-08-30T07:13:57;16.90;99.90
5792;DHT22;2922;53.482;10.006;2023-08-30T07:16:22;17.00;99.90
5792;DHT22;2922;53.482;10.006;2023-08-30T07:18:48;17.10;99.90
5792;DHT22;2922;53.482;10.006;2023-08-30T07:21:13;17.20;99.90
5792;DHT22;2922;53.482;10.006;2023-08-30T07:23:39;17.30;99.90
5792;DHT22;2922;53.482;10.006;2023-08-30T07:26:05;17.30;99.90
5792;DHT22;2922;53.482;10.006;2023-08-30T14:29:54;23.10;66.90
5792;DHT22;2922;53.482;10.006;2023-08-30T14:32:20;23.00;67.10
5792;DHT22;2922;53.482;10.006;2023-08-30T14:34:45;23.00;68.30
5792;DHT22;2922;53.482;10.006;2023-08-30T14:37:11;22.90;68.80
5792;DHT22;2922;53.482;10.006;2023-08-30T14:39:36;22.80;68.60
5792;DHT22;2922;53.482;10.006;2023-08-30T14:42:02;22.80;69.50
5792;DHT22;2922;53.482;10.006;2023-08-30T14:44:28;22.70;69.60
5792;DHT22;2922;53.482;10.006;2023-08-30T14:46:53;22.70;72.20
5792;DHT22;2922;53.482;10.006;2023-08-30T14:49:19;22.60;76.30
5792;DHT22;2922;53.482;10.006;2023-08-30T14:51:45;22.40;75.50
5792;DHT22;2922;53.482;10.006;2023-08-30T14:54:10;22.40;74.10
5792;DHT22;2922;53.482;10.006;2023-08-30T14:56:36;22.40;76.20
5792;DHT22;2922;53.482;10.006;2023-08-30T14:59:01;22.20;74.20
5792;DHT22;2922;53.482;10.006;2023-08-30T15:01:27;22.00;75.00
5792;DHT22;2922;53.482;10.006;2023-08-30T15:03:53;22.00;88.10
5792;DHT22;2922;53.482;10.006;2023-08-30T15:06:18;21.80;80.30
5792;DHT22;2922;53.482;10.006;2023-08-30T15:08:44;21.70;87.70
5792;DHT22;2922;53.482;10.006;2023-08-30T15:11:09;21.70;89.80
5792;DHT22;2922;53.482;10.006;2023-08-30T15:13:35;21.50;93.40
5792;DHT22;2922;53.482;10.006;2023-08-30T15:16:05;21.40;92.90
5792;DHT22;2922;53.482;10.006;2023-08-30T15:18:31;21.40;99.00
5792;DHT22;2922;53.482;10.006;2023-08-30T15:20:57;21.30;90.30
5792;DHT22;2922;53.482;10.006;2023-08-30T15:23:25;21.30;93.50
5792;DHT22;2922;53.482;10.006;2023-08-30T15:25:51;21.30;95.00
5792;DHT22;2922;53.482;10.006;2023-08-30T15:28:17;21.30;99.20
5792;DHT22;2922;53.482;10.006;2023-08-30T15:30:43;21.20;99.90
5792;DHT22;2922;53.482;10.006;2023-08-30T15:33:09;21.20;99.90
5792;DHT22;2922;53.482;10.006;2023-08-30T15:35:39;21.20;99.90
5792;DHT22;2922;53.482;10.006;2023-08-30T15:38:05;21.20;99.90
5792;DHT22;2922;53.482;10.006;2023-08-30T15:40:31;21.10;99.90
5792;DHT22;2922;53.482;10.006;2023-08-30T15:42:58;21.00;99.90
5792;DHT22;2922;53.482;10.006;2023-08-30T15:45:24;21.10;99.90
5792;DHT22;2922;53.482;10.006;2023-08-30T15:47:49;21.10;99.90
5792;DHT22;2922;53.482;10.006;2023-08-30T15:50:15;21.00;99.90
5792;DHT22;2922;53.482;10.006;2023-08-30T15:52:41;20.90;99.90
5792;DHT22;2922;53.482;10.006;2023-08-30T15:55:06;20.80;99.90
5792;DHT22;2922;53.482;10.006;2023-08-30T15:57:32;20.70;99.90
5792;DHT22;2922;53.482;10.006;2023-08-30T15:59:58;20.70;99.90
5792;DHT22;2922;53.482;10.006;2023-08-30T16:02:23;20.80;99.90
5792;DHT22;2922;53.482;10.006;2023-08-30T16:04:49;20.80;99.90
5792;DHT22;2922;53.482;10.006;2023-08-30T16:07:14;20.80;99.90
5792;DHT22;2922;53.482;10.006;2023-08-30T16:09:40;20.70;99.90
5792;DHT22;2922;53.482;10.006;2023-08-30T16:12:06;20.70;99.90
5792;DHT22;2922;53.482;10.006;2023-08-30T16:14:32;20.70;99.90
5792;DHT22;2922;53.482;10.006;2023-08-30T16:16:57;20.60;99.90
5792;DHT22;2922;53.482;10.006;2023-08-30T16:19:23;20.60;99.90
5792;DHT22;2922;53.482;10.006;2023-08-30T16:21:50;20.50;99.90
5792;DHT22;2922;53.482;10.006;2023-08-30T16:24:20;20.10;99.90
5792;DHT22;2922;53.482;10.006;2023-08-30T16:26:45;19.90;99.90
5792;DHT22;2922;53.482;10.006;2023-08-30T16:29:11;19.70;99.90
5792;DHT22;2922;53.482;10.006;2023-08-30T16:31:37;19.60;99.90
5792;DHT22;2922;53.482;10.006;2023-08-30T16:34:03;19.50;99.90
5792;DHT22;2922;53.482;10.006;2023-08-30T16:36:28;19.40;99.90
5792;DHT22;2922;53.482;10.006;2023-08-30T16:38:54;19.30;99.90
5792;DHT22;2922;53.482;10.006;2023-08-30T16:41:19;19.20;99.90
5792;DHT22;2922;53.482;10.006;2023-08-30T16:43:45;19.10;99.90
5792;DHT22;2922;53.482;10.006;2023-08-30T16:46:10;19.20;99.90
5792;DHT22;2922;53.482;10.006;2023-08-30T16:48:36;19.00;99.90
5792;DHT22;2922;53.482;10.006;2023-08-30T16:51:01;19.00;99.90
5792;DHT22;2922;53.482;10.006;2023-08-30T16:53:32;19.00;99.90
5792;DHT22;2922;53.482;10.006;2023-08-30T16:56:02;19.00;99.90
5792;DHT22;2922;53.482;10.006;2023-08-30T16:58:28;19.10;99.90
5792;DHT22;2922;53.482;10.006;2023-08-30T17:00:54;19.10;99.90
5792;DHT22;2922;53.482;10.006;2023-08-30T17:03:20;19.10;99.90
5792;DHT22;2922;53.482;10.006;2023-08-30T17:05:46;19.10;99.90
5792;DHT22;2922;53.482;10.006;2023-08-30T17:08:11;19.00;99.90
5792;DHT22;2922;53.482;10.006;2023-08-30T17:10:37;19.00;99.90
5792;DHT22;2922;53.482;10.006;2023-08-30T17:13:03;19.00;99.90
5792;DHT22;2922;53.482;10.006;2023-08-30T17:15:29;19.00;99.90
5792;DHT22;2922;53.482;10.006;2023-08-30T17:17:54;19.00;99.90
5792;DHT22;2922;53.482;10.006;2023-08-30T17:20:20;19.00;99.90
5792;DHT22;2922;53.482;10.006;2023-08-30T17:22:45;19.00;99.90
5792;DHT22;2922;53.482;10.006;2023-08-30T17:25:11;19.00;99.90
5792;DHT22;2922;53.482;10.006;2023-08-30T17:27:36;18.80;99.90
5792;DHT22;2922;53.482;10.006;2023-08-30T17:30:03;18.70;99.90
5792;DHT22;2922;53.482;10.006;2023-08-30T17:32:29;18.70;99.90
5792;DHT22;2922;53.482;10.006;2023-08-30T17:34:56;18.70;99.90
5792;DHT22;2922;53.482;10.006;2023-08-30T17:37:22;18.70;99.90
5792;DHT22;2922;53.482;10.006;2023-08-30T17:39:47;18.60;99.90
5792;DHT22;2922;53.482;10.006;2023-08-30T17:42:13;18.60;99.90
5792;DHT22;2922;53.482;10.006;2023-08-30T17:44:39;18.40;99.90
5792;DHT22;2922;53.482;10.006;2023-08-30T17:47:10;18.40;99.90
5792;DHT22;2922;53.482;10.006;2023-08-30T17:49:35;18.30;99.90
5792;DHT22;2922;53.482;10.006;2023-08-30T17:52:01;18.20;99.90
5792;DHT22;2922;53.482;10.006;2023-08-30T17:54:28;18.10;99.90
5792;DHT22;2922;53.482;10.006;2023-08-30T17:56:55;18.10;99.90
5792;DHT22;2922;53.482;10.006;2023-08-30T17:59:20;17.90;99.90
5792;DHT22;2922;53.482;10.006;2023-08-30T18:01:46;17.90;99.90
5792;DHT22;2922;53.482;10.006;2023-08-30T18:04:12;18.00;99.90
5792;DHT22;2922;53.482;10.006;2023-08-30T18:06:38;18.00;99.90
5792;DHT22;2922;53.482;10.006;2023-08-30T18:09:04;18.00;99.90
5792;DHT22;2922;53.482;10.006;2023-08-30T18:11:30;17.90;99.90
5792;DHT22;2922;53.482;10.006;2023-08-30T18:13:55;17.90;99.90
5792;DHT22;2922;53.482;10.006;2023-08-30T18:16:21;17.90;99.90
5792;DHT22;2922;53.482;10.006;2023-08-30T18:18:47;17.80;99.90
5792;DHT22;2922;53.482;10.006;2023-08-30T18:21:13;17.70;99.90
5792;DHT22;2922;53.482;10.006;2023-08-30T18:23:43;17.70;99.90
5792;DHT22;2922;53.482;10.006;2023-08-30T18:26:11;17.70;99.90
5792;DHT22;2922;53.482;10.006;2023-08-30T18:28:36;17.60;99.90
5792;DHT22;2922;53.482;10.006;2023-08-30T18:31:02;17.70;99.90
5792;DHT22;2922;53.482;10.006;2023-08-30T18:33:28;17.60;99.90
5792;DHT22;2922;53.482;10.006;2023-08-30T18:35:54;17.60;99.90
5792;DHT22;2922;53.482;10.006;2023-08-30T18:38:19;17.60;99.90
5792;DHT22;2922;53.482;10.006;2023-08-30T18:40:45;17.60;99.90
5792;DHT22;2922;53.482;10.006;2023-08-30T18:43:10;17.50;99.90
5792;DHT22;2922;53.482;10.006;2023-08-30T18:45:43;17.50;99.90
5792;DHT22;2922;53.482;10.006;2023-08-30T18:48:09;17.40;99.90
5792;DHT22;2922;53.482;10.006;2023-08-30T18:50:34;17.40;99.90
5792;DHT22;2922;53.482;10.006;2023-08-30T18:53:00;17.40;99.90
5792;DHT22;2922;53.482;10.006;2023-08-30T18:55:26;17.40;99.90
5792;DHT22;2922;53.482;10.006;2023-08-30T18:57:58;17.40;99.90
5792;DHT22;2922;53.482;10.006;2023-08-30T19:00:23;17.40;99.90
5792;DHT22;2922;53.482;10.006;2023-08-30T19:02:49;17.30;99.90
5792;DHT22;2922;53.482;10.006;2023-08-30T19:05:14;17.30;99.90
5792;DHT22;2922;53.482;10.006;2023-08-30T19:07:40;17.10;99.90
5792;DHT22;2922;53.482;10.006;2023-08-30T19:10:07;17.10;99.90
5792;DHT22;2922;53.482;10.006;2023-08-30T19:12:33;17.10;99.90
5792;DHT22;2922;53.482;10.006;2023-08-30T19:14:59;17.00;99.90
5792;DHT22;2922;53.482;10.006;2023-08-30T19:17:25;17.00;99.90
5792;DHT22;2922;53.482;10.006;2023-08-30T19:19:51;16.90;99.90
5792;DHT22;2922;53.482;10.006;2023-08-30T19:22:16;16.90;99.90
5792;DHT22;2922;53.482;10.006;2023-08-30T19:24:44;16.90;99.90
5792;DHT22;2922;53.482;10.006;2023-08-30T19:27:10;16.80;99.90
5792;DHT22;2922;53.482;10.006;2023-08-30T19:29:35;16.70;99.90
5792;DHT22;2922;53.482;10.006;2023-08-30T19:32:01;16.70;99.90
5792;DHT22;2922;53.482;10.006;2023-08-30T19:34:27;16.70;99.90
5792;DHT22;2922;53.482;10.006;2023-08-30T19:36:52;16.50;99.90
5792;DHT22;2922;53.482;10.006;2023-08-30T19:39:18;16.40;99.90
5792;DHT22;2922;53.482;10.006;2023-08-30T19:41:45;16.30;99.90
5792;DHT22;2922;53.482;10.006;2023-08-30T19:44:10;16.30;99.90
5792;DHT22;2922;53.482;10.006;2023-08-30T19:46:36;16.30;99.90
5792;DHT22;2922;53.482;10.006;2023-08-30T19:49:02;16.20;99.90
5792;DHT22;2922;53.482;10.006;2023-08-30T19:51:27;16.10;99.90
5792;DHT22;2922;53.482;10.006;2023-08-30T19:53:53;16.10;99.90
5792;DHT22;2922;53.482;10.006;2023-08-30T19:56:19;16.10;99.90
5792;DHT22;2922;53.482;10.006;2023-08-30T19:58:45;16.20;99.90
5792;DHT22;2922;53.482;10.006;2023-08-30T20:01:12;16.10;99.90
5792;DHT22;2922;53.482;10.006;2023-08-30T20:03:38;16.10;99.90
5792;DHT22;2922;53.482;10.006;2023-08-30T20:06:06;16.00;99.90
5792;DHT22;2922;53.482;10.006;2023-08-30T20:08:32;15.90;99.90
5792;DHT22;2922;53.482;10.006;2023-08-30T20:11:05;15.90;99.90
5792;DHT22;2922;53.482;10.006;2023-08-30T20:13:33;16.00;99.90
5792;DHT22;2922;53.482;10.006;2023-08-30T20:16:03;15.90;99.90
5792;DHT22;2922;53.482;10.006;2023-08-30T20:18:29;15.80;99.90
5792;DHT22;2922;53.482;10.006;2023-08-30T20:20:55;15.80;99.90
5792;DHT22;2922;53.482;10.006;2023-08-30T20:23:21;15.80;99.90
5792;DHT22;2922;53.482;10.006;2023-08-30T20:25:48;15.70;99.90
5792;DHT22;2922;53.482;10.006;2023-08-30T20:28:14;15.70;99.90
5792;DHT22;2922;53.482;10.006;2023-08-30T20:30:47;15.70;99.90
5792;DHT22;2922;53.482;10.006;2023-08-30T20:33:13;15.70;99.90
5792;DHT22;2922;53.482;10.006;2023-08-30T20:35:39;15.70;99.90
5792;DHT22;2922;53.482;10.006;2023-08-30T20:38:04;15.70;99.90
5792;DHT22;2922;53.482;10.006;2023-08-30T20:40:30;15.60;99.90
5792;DHT22;2922;53.482;10.006;2023-08-30T20:42:55;15.70;99.90
5792;DHT22;2922;53.482;10.006;2023-08-30T20:45:21;15.60;99.90
5792;DHT22;2922;53.482;10.006;2023-08-30T20:47:46;15.70;99.90
5792;DHT22;2922;53.482;10.006;2023-08-30T20:50:12;15.60;99.90
5792;DHT22;2922;53.482;10.006;2023-08-30T20:52:37;15.70;99.90
5792;DHT22;2922;53.482;10.006;2023-08-30T20:55:03;15.50;99.90
5792;DHT22;2922;53.482;10.006;2023-08-30T20:57:35;15.60;99.90
5792;DHT22;2922;53.482;10.006;2023-08-30T21:00:00;15.50;99.90
5792;DHT22;2922;53.482;10.006;2023-08-30T21:02:28;15.50;99.90
5792;DHT22;2922;53.482;10.006;2023-08-30T21:04:58;15.50;99.90
5792;DHT22;2922;53.482;10.006;2023-08-30T21:07:24;15.40;99.90
5792;DHT22;2922;53.482;10.006;2023-08-30T21:09:49;15.50;99.90
5792;DHT22;2922;53.482;10.006;2023-08-30T21:12:15;15.40;99.90
5792;DHT22;2922;53.482;10.006;2023-08-30T21:14:41;15.40;99.90
5792;DHT22;2922;53.482;10.006;2023-08-30T21:17:06;15.40;99.90
5792;DHT22;2922;53.482;10.006;2023-08-30T21:19:32;15.40;99.90
5792;DHT22;2922;53.482;10.006;2023-08-30T21:21:57;15.30;99.90
5792;DHT22;2922;53.482;10.006;2023-08-30T21:24:23;15.40;99.90
5792;DHT22;2922;53.482;10.006;2023-08-30T21:26:48;15.30;99.90
5792;DHT22;2922;53.482;10.006;2023-08-30T21:29:14;15.30;99.90
5792;DHT22;2922;53.482;10.006;2023-08-30T21:31:39;15.20;99.90
5792;DHT22;2922;53.482;10.006;2023-08-30T21:34:05;15.20;99.90
5792;DHT22;2922;53.482;10.006;2023-08-30T21:36:31;15.20;99.90
5792;DHT22;2922;53.482;10.006;2023-08-30T21:38:56;15.20;99.90
5792;DHT22;2922;53.482;10.006;2023-08-30T21:41:22;15.10;99.90
5792;DHT22;2922;53.482;10.006;2023-08-30T21:43:49;15.10;99.90
5792;DHT22;2922;53.482;10.006;2023-08-30T21:46:14;15.10;99.90
5792;DHT22;2922;53.482;10.006;2023-08-30T21:48:40;15.20;99.90
5792;DHT22;2922;53.482;10.006;2023-08-30T21:51:06;15.10;99.90
5792;DHT22;2922;53.482;10.006;2023-08-30T21:53:33;15.10;99.90
5792;DHT22;2922;53.482;10.006;2023-08-30T21:56:02;15.00;99.90
5792;DHT22;2922;53.482;10.006;2023-08-30T21:58:30;15.00;99.90
5792;DHT22;2922;53.482;10.006;2023-08-30T22:00:56;15.00;99.90
5792;DHT22;2922;53.482;10.006;2023-08-30T22:03:25;15.10;99.90
5792;DHT22;2922;53.482;10.006;2023-08-30T22:05:50;15.00;99.90
5792;DHT22;2922;53.482;10.006;2023-08-30T22:08:16;15.00;99.90
5792;DHT22;2922;53.482;10.006;2023-08-30T22:10:41;15.00;99.90
5792;DHT22;2922;53.482;10.006;2023-08-30T22:13:07;15.00;99.90
5792;DHT22;2922;53.482;10.006;2023-08-30T22:15:33;15.10;99.90
5792;DHT22;2922;53.482;10.006;2023-08-30T22:17:58;15.10;99.90
5792;DHT22;2922;53.482;10.006;2023-08-30T22:20:25;15.10;99.90
5792;DHT22;2922;53.482;10.006;2023-08-30T22:22:50;15.10;99.90
5792;DHT22;2922;53.482;10.006;2023-08-30T22:25:16;15.10;99.90
5792;DHT22;2922;53.482;10.006;2023-08-30T22:27:42;15.00;99.90
5792;DHT22;2922;53.482;10.006;2023-08-30T22:30:10;15.00;99.90
5792;DHT22;2922;53.482;10.006;2023-08-30T22:32:36;15.00;99.90
5792;DHT22;2922;53.482;10.006;2023-08-30T22:35:03;15.10;99.90
5792;DHT22;2922;53.482;10.006;2023-08-30T22:37:30;14.90;99.90
5792;DHT22;2922;53.482;10.006;2023-08-30T22:39:56;15.00;99.90
5792;DHT22;2922;53.482;10.006;2023-08-30T22:42:21;15.00;99.90
5792;DHT22;2922;53.482;10.006;2023-08-30T22:44:47;14.90;99.90
5792;DHT22;2922;53.482;10.006;2023-08-30T22:47:14;14.80;99.90